Disclaimer

Please do not use the information listed here in-flight or in-navigation, as they are not provided to us by the airports but are provided by volunteers, so they might be outdated.

Search


Regions


Airport information page

No radio frequency information is available.

Airport informations:
Latitude: 53° 40' 03.00" N
Longitude: 113° 51' 16.00" W
Elevation: 2255 feet - 687 meters
Operating hours: N/A
Operating agency: Civil government, landing fees and diplomatic clearance may be required
Timezone: Second Sunday in March at 0200 to first Sunday in November at 0200 local time (Exception Arizona and that portion of Indiana in the Eastern Time Zone)
Fuel: 100/130 octane gasoline, leaded, MIL-L-5572F (GREEN)

Runway information:
08/26 - 3500 x 100 feet< - >1067 x 30 meters
16/34 - 3500 x 100 feet< - >1067 x 30 meters

Recent METARs:
CZVL 181600Z AUTO 30017KT 9SM OVC120 03/02 A2981 RMK SLP125
CZVL 181700Z AUTO 30014G19KT 9SM OVC110 03/01 A2983 RMK SLP133
CZVL 181700Z AUTO 30014G19KT 9SM OVC110 03/01 A2983 RMK SLP133

Airport on the map: